This is the latest recevied weather packets stored in our database for station/object PY1LEO-13. If no packets are shown the sender has not sent any weather packets the latest 1 day(s).
| Time | Temp. | Humidity | Pressure | Rain* | Wind** | Luminosity | Snow |
|---|---|---|---|---|---|---|---|
| 1778040966 | 26.11° C | 63% | 1020 hPa | - | - | - | - |
| 1778040666 | 26.11° C | 63% | 1020.1 hPa | - | - | - | - |
| 1778040366 | 26.11° C | 63% | 1020.1 hPa | - | - | - | - |
| 1778040066 | 26.11° C | 63% | 1020.2 hPa | - | - | - | - |
| 1778039766 | 26.11° C | 63% | 1020.2 hPa | - | - | - | - |
| 1778039466 | 26.11° C | 63% | 1020.3 hPa | - | - | - | - |
| 1778039166 | 26.11° C | 63% | 1020.3 hPa | - | - | - | - |
| 1778038866 | 26.11° C | 63% | 1020.4 hPa | - | - | - | - |
| 1778038566 | 26.11° C | 63% | 1020.4 hPa | - | - | - | - |
| 1778038266 | 26.11° C | 63% | 1020.4 hPa | - | - | - | - |
| 1778037366 | 26.11° C | 63% | 1020.3 hPa | - | - | - | - |
| 1778037066 | 26.11° C | 63% | 1020.4 hPa | - | - | - | - |
| 1778036466 | 26.11° C | 64% | 1020.4 hPa | - | - | - | - |
| 1778035566 | 26.11° C | 63% | 1020.5 hPa | - | - | - | - |
| 1778034666 | 26.11° C | 59% | 1020.6 hPa | - | - | - | - |
| 1778034366 | 26.11° C | 58% | 1020.6 hPa | - | - | - | - |
| 1778032867 | 26.11° C | 57% | 1020.8 hPa | - | - | - | - |
| 1778032266 | 26.67° C | 57% | 1020.8 hPa | - | - | - | - |
| 1778030766 | 26.67° C | 58% | 1020.7 hPa | - | - | - | - |
| 1778029866 | 26.67° C | 57% | 1020.7 hPa | - | - | - | - |
| 1778028966 | 26.67° C | 59% | 1020.7 hPa | - | - | - | - |
| 1778028366 | 26.67° C | 59% | 1020.7 hPa | - | - | - | - |
| 1778027166 | 27.22° C | 63% | 1020.6 hPa | - | - | - | - |
| 1778026566 | 27.22° C | 63% | 1020.7 hPa | - | - | - | - |
| 1778025366 | 27.22° C | 62% | 1020.7 hPa | - | - | - | - |
* Rain since midnight (hover to see other rain measurements)
** Current wind speed in m/s (hover to see current wind gust speed)